Time;durP1;ratioP1;P1;durP2;ratioP2;P2;SDS_P1;SDS_P2;PMS_P1;PMS_P2;Temp;Humidity;BMP_temperature;BMP_pressure;BME280_temperature;BME280_humidity;BME280_pressure;Samples;Min_cycle;Max_cycle;Signal;HPM_P1;HPM_P2
2022/07/01 00:02:06;;;;;;;3.88;1.88;;;13.40;84.90;;;;;;5088299;28;20055;-75
2022/07/01 00:04:34;;;;;;;4.30;2.00;;;13.40;84.90;;;;;;5093195;28;20055;-75
2022/07/01 00:07:20;;;;;;;3.72;2.00;;;13.50;84.80;;;;;;5070552;28;20383;-76
2022/07/01 00:09:48;;;;;;;5.65;1.90;;;13.50;84.70;;;;;;5089065;28;20059;-75
2022/07/01 00:12:15;;;;;;;2.67;1.90;;;13.50;84.70;;;;;;5093694;28;20044;-75
2022/07/01 00:14:43;;;;;;;2.88;2.00;;;13.50;84.70;;;;;;5083472;28;20478;-75
2022/07/01 00:17:10;;;;;;;4.43;2.30;;;13.40;84.50;;;;;;5086846;28;20054;-75
2022/07/01 00:19:38;;;;;;;7.30;2.05;;;13.40;84.50;;;;;;5083223;28;20147;-75
2022/07/01 00:22:07;;;;;;;6.65;2.00;;;13.30;84.50;;;;;;5094906;28;20052;-76
2022/07/01 00:24:35;;;;;;;4.82;2.17;;;13.30;84.50;;;;;;5090206;28;20385;-76
2022/07/01 00:27:02;;;;;;;4.97;2.25;;;13.30;84.40;;;;;;5071093;28;20051;-76
2022/07/01 00:29:33;;;;;;;3.05;1.85;;;13.30;84.40;;;;;;5068674;28;20048;-76
2022/07/01 00:32:01;;;;;;;2.55;1.83;;;13.30;84.40;;;;;;5085872;28;20040;-76
2022/07/01 00:34:28;;;;;;;3.42;1.95;;;13.30;84.40;;;;;;5091127;28;20039;-76
2022/07/01 00:36:56;;;;;;;3.53;2.10;;;13.30;84.40;;;;;;5083438;28;20521;-76
2022/07/01 00:39:24;;;;;;;4.68;2.08;;;13.30;84.40;;;;;;5068629;28;20055;-76
2022/07/01 00:41:51;;;;;;;4.07;2.00;;;13.30;84.40;;;;;;5066194;28;20055;-76
2022/07/01 00:44:22;;;;;;;4.75;2.50;;;13.30;84.40;;;;;;5086925;28;20493;-76
2022/07/01 00:46:51;;;;;;;2.50;2.30;;;13.30;84.40;;;;;;5070402;28;20504;-76
2022/07/01 00:49:19;;;;;;;10.95;2.65;;;13.30;84.40;;;;;;5089574;28;20488;-76
2022/07/01 00:51:47;;;;;;;2.88;1.92;;;13.30;84.40;;;;;;5082490;28;20051;-76
2022/07/01 00:54:15;;;;;;;7.38;2.45;;;13.40;84.40;;;;;;5068966;28;20067;-75
2022/07/01 00:56:43;;;;;;;3.03;2.58;;;13.40;84.40;;;;;;5086907;28;20059;-76
2022/07/01 00:59:11;;;;;;;4.53;2.20;;;13.40;84.50;;;;;;5068124;28;20048;-76
2022/07/01 01:01:39;;;;;;;3.50;2.45;;;13.40;84.50;;;;;;5085410;28;20397;-76
2022/07/01 01:04:07;;;;;;;4.13;2.35;;;13.30;84.50;;;;;;5085230;28;20041;-75
2022/07/01 01:06:34;;;;;;;2.30;2.10;;;13.30;84.40;;;;;;5085798;28;20044;-76
2022/07/01 01:09:03;;;;;;;3.65;2.40;;;13.30;84.50;;;;;;5084367;28;20386;-75
2022/07/01 01:11:31;;;;;;;7.53;2.70;;;13.30;84.50;;;;;;5090886;28;20067;-76
2022/07/01 01:13:59;;;;;;;4.85;2.70;;;13.30;84.50;;;;;;5086596;28;20043;-76
2022/07/01 01:16:27;;;;;;;7.05;2.42;;;13.30;84.50;;;;;;5082302;28;20041;-76
2022/07/01 01:18:56;;;;;;;4.72;2.40;;;13.30;84.50;;;;;;5092434;28;20032;-75
2022/07/01 01:21:24;;;;;;;6.65;3.05;;;13.30;84.50;;;;;;5092541;28;20510;-76
2022/07/01 01:23:52;;;;;;;4.90;3.17;;;13.30;84.60;;;;;;5087138;28;20051;-75
2022/07/01 01:26:21;;;;;;;10.43;3.53;;;13.30;84.60;;;;;;5087934;28;20112;-76
2022/07/01 01:28:50;;;;;;;4.90;3.30;;;13.20;84.70;;;;;;5093751;28;20043;-75
2022/07/01 01:31:28;;;;;;;7.88;3.70;;;13.20;84.80;;;;;;5088267;28;20405;-75
2022/07/01 01:33:57;;;;;;;7.65;3.60;;;13.20;84.80;;;;;;5090761;28;20504;-76
2022/07/01 01:36:24;;;;;;;4.78;3.40;;;13.10;84.90;;;;;;5066644;28;20044;-75
2022/07/01 01:38:54;;;;;;;6.22;3.55;;;13.10;85.00;;;;;;5092149;28;20046;-76
2022/07/01 01:41:22;;;;;;;4.38;3.35;;;12.90;85.10;;;;;;5084892;28;20395;-76
2022/07/01 01:43:50;;;;;;;4.72;3.30;;;12.80;85.20;;;;;;5067326;28;20055;-75
2022/07/01 01:46:17;;;;;;;3.08;2.88;;;12.80;85.30;;;;;;5086039;28;20055;-76
2022/07/01 01:48:45;;;;;;;3.50;3.20;;;12.70;85.40;;;;;;5090116;28;20051;-75
2022/07/01 01:51:12;;;;;;;4.05;2.90;;;12.80;85.50;;;;;;5087626;28;20051;-75
2022/07/01 01:53:40;;;;;;;6.13;3.42;;;12.80;85.40;;;;;;5069897;28;20052;-75
2022/07/01 01:56:08;;;;;;;5.13;3.03;;;12.80;85.40;;;;;;5076484;28;20067;-75
2022/07/01 01:58:35;;;;;;;5.75;3.00;;;12.80;85.30;;;;;;5093865;28;20051;-74
2022/07/01 02:01:03;;;;;;;5.88;3.03;;;12.70;85.30;;;;;;5089330;28;20035;-74
2022/07/01 02:03:30;;;;;;;7.28;3.30;;;12.60;85.30;;;;;;5087035;28;20404;-75
2022/07/01 02:05:58;;;;;;;7.70;3.40;;;12.50;85.40;;;;;;5085047;28;21310;-76
2022/07/01 02:08:26;;;;;;;5.78;3.05;;;12.40;85.50;;;;;;5082300;28;20044;-74
2022/07/01 02:10:53;;;;;;;4.15;2.92;;;12.30;85.70;;;;;;5089495;28;20054;-74
2022/07/01 02:13:25;;;;;;;5.68;2.83;;;12.30;85.80;;;;;;5085832;28;20369;-74
2022/07/01 02:15:53;;;;;;;3.67;3.08;;;12.30;85.90;;;;;;5083679;28;20043;-75
2022/07/01 02:18:21;;;;;;;3.67;3.17;;;12.30;85.90;;;;;;5062101;28;20397;-74
2022/07/01 02:20:49;;;;;;;6.22;3.03;;;12.30;85.90;;;;;;5087639;28;20520;-74
2022/07/01 02:23:17;;;;;;;10.80;3.22;;;12.30;85.90;;;;;;5088481;28;20498;-74
2022/07/01 02:25:46;;;;;;;4.18;2.55;;;12.30;85.90;;;;;;5086110;28;20514;-74
2022/07/01 02:28:13;;;;;;;6.40;3.00;;;12.30;85.90;;;;;;5091612;28;20068;-75
2022/07/01 02:30:42;;;;;;;3.88;2.53;;;12.30;85.90;;;;;;5070211;28;20037;-75
2022/07/01 02:33:10;;;;;;;4.78;2.85;;;12.30;85.80;;;;;;5082599;28;20049;-75
2022/07/01 02:35:39;;;;;;;3.42;2.55;;;12.30;85.80;;;;;;5076047;28;20059;-75
2022/07/01 02:38:11;;;;;;;;;;;12.30;85.80;;;;;;5083936;28;20040;-74
2022/07/01 02:40:39;;;;;;;3.83;2.75;;;12.30;85.80;;;;;;5085293;28;19931;-74
2022/07/01 02:43:07;;;;;;;4.15;2.80;;;12.30;85.70;;;;;;5060512;28;20497;-74
2022/07/01 02:45:35;;;;;;;6.18;3.03;;;12.20;85.70;;;;;;5085900;28;20051;-75
2022/07/01 02:48:03;;;;;;;5.28;3.10;;;12.20;85.70;;;;;;5087753;28;20040;-75
2022/07/01 02:50:30;;;;;;;4.43;3.20;;;12.20;85.70;;;;;;5085029;28;20130;-74
2022/07/01 02:52:58;;;;;;;3.42;2.97;;;12.20;85.80;;;;;;5078527;28;20033;-75
2022/07/01 02:55:28;;;;;;;8.25;3.35;;;12.20;85.80;;;;;;5085091;28;20536;-74
2022/07/01 02:57:57;;;;;;;3.53;3.22;;;12.20;85.80;;;;;;5093158;28;20071;-75
2022/07/01 03:00:25;;;;;;;4.43;3.53;;;12.20;85.90;;;;;;5082783;28;20390;-75
2022/07/01 03:02:53;;;;;;;4.25;3.15;;;12.20;85.90;;;;;;5084241;28;20040;-75
2022/07/01 03:05:21;;;;;;;5.15;3.63;;;12.20;86.00;;;;;;5083099;28;20044;-75
2022/07/01 03:07:48;;;;;;;7.63;3.80;;;12.20;86.10;;;;;;5086871;28;20036;-76
2022/07/01 03:10:16;;;;;;;8.30;4.43;;;12.20;86.10;;;;;;5082745;28;20044;-75
2022/07/01 03:12:44;;;;;;;6.63;4.32;;;12.20;86.20;;;;;;5087466;28;20052;-74
2022/07/01 03:15:15;;;;;;;7.38;4.18;;;12.20;86.40;;;;;;5083070;28;20401;-75
2022/07/01 03:17:45;;;;;;;9.73;4.30;;;12.20;86.50;;;;;;5089067;28;20380;-75
2022/07/01 03:20:15;;;;;;;6.30;4.78;;;12.20;86.60;;;;;;5086828;28;20040;-76
2022/07/01 03:22:45;;;;;;;6.47;4.60;;;12.20;86.60;;;;;;5090837;28;20047;-75
2022/07/01 03:25:13;;;;;;;5.03;4.10;;;12.20;86.70;;;;;;5071597;28;20053;-76
2022/07/01 03:27:45;;;;;;;9.52;4.50;;;12.20;86.70;;;;;;5092667;28;20485;-76
2022/07/01 03:30:14;;;;;;;6.10;4.65;;;12.20;86.80;;;;;;5088585;28;20481;-75
2022/07/01 03:32:42;;;;;;;6.38;4.20;;;12.20;86.80;;;;;;5087846;28;20063;-76
2022/07/01 03:37:57;;;;;;;6.82;4.07;;;12.20;86.90;;;;;;5086835;28;20259;-76
2022/07/01 03:40:25;;;;;;;6.40;4.07;;;12.10;87.00;;;;;;5085660;28;20040;-75
2022/07/01 03:42:52;;;;;;;6.20;3.70;;;12.10;87.00;;;;;;5089845;28;20044;-76
2022/07/01 03:45:20;;;;;;;10.25;4.13;;;12.00;87.10;;;;;;5086519;28;20051;-75
2022/07/01 03:47:49;;;;;;;5.03;4.13;;;12.00;87.10;;;;;;5091944;28;20043;-75
2022/07/01 03:50:20;;;;;;;4.28;3.88;;;12.00;87.10;;;;;;5095316;28;20059;-75
2022/07/01 03:52:48;;;;;;;5.38;3.70;;;12.00;87.20;;;;;;5063733;28;20040;-76
2022/07/01 03:55:16;;;;;;;5.25;3.95;;;12.00;87.30;;;;;;5088741;28;20056;-76
2022/07/01 03:57:44;;;;;;;10.18;4.22;;;11.90;87.20;;;;;;5096690;28;20059;-75
2022/07/01 04:00:12;;;;;;;7.72;4.28;;;11.90;87.20;;;;;;5087589;28;20482;-75
2022/07/01 04:02:48;;;;;;;8.15;3.80;;;11.80;87.20;;;;;;5096643;28;20040;-75
2022/07/01 04:05:16;;;;;;;9.55;4.68;;;11.80;87.30;;;;;;5072296;28;20048;-75
2022/07/01 04:07:43;;;;;;;8.48;4.22;;;11.80;87.20;;;;;;5086351;28;20048;-76
2022/07/01 04:10:12;;;;;;;6.40;4.28;;;11.80;87.20;;;;;;5088480;28;20485;-76
2022/07/01 04:12:40;;;;;;;10.52;5.00;;;11.80;87.20;;;;;;5065315;28;20497;-75
2022/07/01 04:15:17;;;;;;;8.07;5.35;;;11.90;87.20;;;;;;5092778;28;20051;-76
2022/07/01 04:17:45;;;;;;;6.15;4.63;;;11.90;87.20;;;;;;5090687;28;20054;-75
2022/07/01 04:20:12;;;;;;;5.28;4.43;;;11.90;87.10;;;;;;5096429;28;20048;-75
2022/07/01 04:22:40;;;;;;;9.85;4.78;;;11.90;87.20;;;;;;5085224;28;20044;-75
2022/07/01 04:25:08;;;;;;;13.05;4.32;;;12.00;87.20;;;;;;5086310;28;20044;-76
2022/07/01 04:27:35;;;;;;;6.82;4.43;;;12.00;87.20;;;;;;5093518;28;20086;-76
2022/07/01 04:30:03;;;;;;;8.02;4.72;;;12.00;87.10;;;;;;5087803;28;20040;-75
2022/07/01 04:32:31;;;;;;;12.98;4.65;;;11.90;87.10;;;;;;5095008;28;20055;-76
2022/07/01 04:34:59;;;;;;;6.35;4.32;;;12.00;87.10;;;;;;5086922;28;20036;-76
2022/07/01 04:37:26;;;;;;;4.82;4.32;;;12.00;87.00;;;;;;5068607;28;20059;-76
2022/07/01 04:39:54;;;;;;;7.28;4.30;;;12.00;87.00;;;;;;5085199;28;20410;-76
2022/07/01 04:42:22;;;;;;;8.57;4.18;;;12.00;87.00;;;;;;5092159;28;20055;-75
2022/07/01 04:44:49;;;;;;;6.72;3.88;;;12.10;86.90;;;;;;5082805;28;20071;-75
2022/07/01 04:47:18;;;;;;;7.25;4.13;;;12.10;86.90;;;;;;5086077;28;20044;-75
2022/07/01 04:49:45;;;;;;;3.92;3.58;;;12.10;86.90;;;;;;5072758;28;20044;-76
2022/07/01 04:52:13;;;;;;;8.25;4.07;;;12.20;86.80;;;;;;5093461;28;20417;-75
2022/07/01 04:54:41;;;;;;;6.00;4.03;;;12.20;86.80;;;;;;5092154;28;20401;-75
2022/07/01 04:57:09;;;;;;;4.55;3.40;;;12.20;86.70;;;;;;5094604;28;20039;-75
2022/07/01 04:59:37;;;;;;;7.80;3.78;;;12.20;86.60;;;;;;5096856;28;20044;-75
2022/07/01 05:02:04;;;;;;;8.02;4.35;;;12.30;86.50;;;;;;5085034;28;20375;-76
2022/07/01 05:04:40;;;;;;;11.80;4.90;;;12.30;86.40;;;;;;5070317;28;20420;-75
2022/07/01 05:07:27;;;;;;;15.82;4.50;;;12.30;86.40;;;;;;5046060;28;20052;-75
2022/07/01 05:09:56;;;;;;;5.32;3.40;;;12.30;86.30;;;;;;5071561;28;20044;-76
2022/07/01 05:12:24;;;;;;;4.03;3.30;;;12.30;86.30;;;;;;5084460;28;20044;-76
2022/07/01 05:14:51;;;;;;;5.43;3.35;;;12.40;86.20;;;;;;5086001;28;20044;-76
2022/07/01 05:17:19;;;;;;;3.45;2.97;;;12.40;86.20;;;;;;5069401;28;20055;-76
2022/07/01 05:22:33;;;;;;;6.00;3.35;;;12.50;86.10;;;;;;5086230;28;20654;-76
2022/07/01 05:25:01;;;;;;;3.80;2.90;;;12.60;86.10;;;;;;5086627;28;20044;-75
2022/07/01 05:27:29;;;;;;;6.40;3.20;;;12.60;86.00;;;;;;5083931;28;20478;-75
2022/07/01 05:29:56;;;;;;;5.13;3.22;;;12.60;86.00;;;;;;5083217;28;20067;-76
2022/07/01 05:32:24;;;;;;;6.25;3.00;;;12.70;86.00;;;;;;5085126;28;20055;-76
2022/07/01 05:34:52;;;;;;;3.53;3.17;;;12.70;85.90;;;;;;5065461;28;20043;-76
2022/07/01 05:37:21;;;;;;;7.40;3.42;;;12.70;85.80;;;;;;5083882;28;20044;-76
2022/07/01 05:39:49;;;;;;;3.97;3.58;;;12.80;85.80;;;;;;5090845;28;20404;-76
2022/07/01 05:42:18;;;;;;;6.90;3.70;;;12.80;85.70;;;;;;5082701;28;20052;-76
2022/07/01 05:44:45;;;;;;;8.10;3.80;;;12.80;85.70;;;;;;5087868;28;20047;-76
2022/07/01 05:47:13;;;;;;;7.20;4.00;;;12.80;85.70;;;;;;5088095;28;20137;-75
2022/07/01 05:49:40;;;;;;;8.68;3.80;;;12.90;85.70;;;;;;5092321;28;20060;-76
2022/07/01 05:52:08;;;;;;;8.02;3.40;;;13.00;85.60;;;;;;5088955;28;20520;-76
2022/07/01 05:54:36;;;;;;;6.80;3.75;;;13.10;85.60;;;;;;5087299;28;20057;-76
2022/07/01 05:57:04;;;;;;;7.13;3.80;;;13.10;85.50;;;;;;5056621;28;20044;-76
2022/07/01 05:59:36;;;;;;;4.82;3.70;;;13.20;85.40;;;;;;5093188;28;20052;-76
2022/07/01 06:02:04;;;;;;;5.90;3.60;;;13.20;85.40;;;;;;5047620;28;20041;-76
2022/07/01 06:04:31;;;;;;;10.75;3.88;;;13.30;85.30;;;;;;5065067;28;20062;-76
2022/07/01 06:06:59;;;;;;;5.13;3.40;;;13.30;85.20;;;;;;5089847;28;20528;-76
2022/07/01 06:09:27;;;;;;;4.80;3.40;;;13.30;85.10;;;;;;5061310;28;21723;-75
2022/07/01 06:11:56;;;;;;;8.07;3.55;;;13.30;85.00;;;;;;5087031;28;20082;-76
2022/07/01 06:14:24;;;;;;;8.15;3.25;;;13.30;85.00;;;;;;5055875;28;20051;-76
2022/07/01 06:16:52;;;;;;;9.88;3.15;;;13.30;85.00;;;;;;5075652;28;20040;-76
2022/07/01 06:19:20;;;;;;;6.95;3.22;;;13.30;85.00;;;;;;5075729;28;20053;-76
2022/07/01 06:21:47;;;;;;;4.85;3.05;;;13.30;84.90;;;;;;5085772;28;20036;-76
2022/07/01 06:24:15;;;;;;;8.43;3.22;;;13.30;84.90;;;;;;5078427;28;20048;-74
2022/07/01 06:26:43;;;;;;;3.90;2.90;;;13.40;84.90;;;;;;5093592;28;20397;-75
2022/07/01 06:29:11;;;;;;;4.38;2.97;;;13.30;84.90;;;;;;5070007;28;20047;-74
2022/07/01 06:31:38;;;;;;;4.85;2.85;;;13.30;84.90;;;;;;5091235;28;20059;-75
2022/07/01 06:34:06;;;;;;;7.70;3.05;;;13.40;84.90;;;;;;5076319;28;20051;-75
2022/07/01 06:36:34;;;;;;;3.53;2.97;;;13.40;84.90;;;;;;5087837;28;20045;-75
2022/07/01 06:39:01;;;;;;;4.75;2.70;;;13.50;84.80;;;;;;5090256;28;20039;-74
2022/07/01 06:41:29;;;;;;;8.00;3.08;;;13.50;84.80;;;;;;5085859;28;20040;-76
2022/07/01 06:44:02;;;;;;;9.15;3.28;;;13.60;84.70;;;;;;5086328;28;20055;-76
2022/07/01 06:46:30;;;;;;;4.85;2.90;;;13.70;84.60;;;;;;5098957;28;20051;-75
2022/07/01 06:48:59;;;;;;;5.93;2.92;;;13.80;84.50;;;;;;5094504;28;20061;-75
2022/07/01 06:51:27;;;;;;;3.97;2.92;;;13.90;84.50;;;;;;5096486;28;20067;-75
2022/07/01 06:53:55;;;;;;;7.57;2.80;;;14.00;84.30;;;;;;5097202;28;20059;-74
2022/07/01 06:56:22;;;;;;;3.30;2.75;;;14.00;84.20;;;;;;5093640;28;20040;-75
2022/07/01 06:58:50;;;;;;;3.42;2.47;;;14.20;84.20;;;;;;5081417;28;20040;-74
2022/07/01 07:01:18;;;;;;;4.75;2.88;;;14.30;84.00;;;;;;5103229;28;20066;-74
2022/07/01 07:03:45;;;;;;;8.35;2.50;;;14.40;83.80;;;;;;5091989;28;20044;-74
2022/07/01 07:06:13;;;;;;;6.10;2.50;;;14.60;83.70;;;;;;5090710;28;20052;-74
2022/07/01 07:08:41;;;;;;;8.77;2.20;;;14.70;83.60;;;;;;5105516;28;20051;-75
2022/07/01 07:11:09;;;;;;;5.30;2.47;;;14.80;83.20;;;;;;5100464;28;20458;-74
2022/07/01 07:13:37;;;;;;;3.60;2.33;;;14.90;82.40;;;;;;5112223;28;20051;-74
2022/07/01 07:16:05;;;;;;;2.55;1.65;;;15.00;81.80;;;;;;5083280;28;20501;-76
2022/07/01 07:18:32;;;;;;;3.42;2.15;;;15.00;81.70;;;;;;5102088;28;20405;-75
2022/07/01 07:21:00;;;;;;;5.18;2.05;;;15.00;81.30;;;;;;5113838;28;20052;-75
2022/07/01 07:23:28;;;;;;;2.92;2.20;;;15.00;81.20;;;;;;5079813;28;20092;-76
2022/07/01 07:25:56;;;;;;;2.30;2.10;;;15.00;81.20;;;;;;5110392;28;20036;-75
2022/07/01 07:28:23;;;;;;;5.40;2.05;;;15.00;80.90;;;;;;5105966;28;20396;-75
2022/07/01 07:30:51;;;;;;;3.00;2.20;;;15.00;80.90;;;;;;5101141;28;20036;-75
2022/07/01 07:33:19;;;;;;;8.18;2.38;;;15.00;80.80;;;;;;5093172;28;20059;-76
2022/07/01 07:35:46;;;;;;;4.60;2.30;;;15.00;80.90;;;;;;5079754;28;20039;-75
2022/07/01 07:38:14;;;;;;;3.53;1.75;;;15.00;80.90;;;;;;5108073;28;20047;-75
2022/07/01 07:40:41;;;;;;;3.78;2.03;;;15.10;80.80;;;;;;5079961;28;20040;-75
2022/07/01 07:43:09;;;;;;;4.38;2.15;;;15.20;80.60;;;;;;5109730;28;20489;-75
2022/07/01 07:45:37;;;;;;;3.97;2.35;;;15.30;80.60;;;;;;5079275;28;20382;-75
2022/07/01 07:48:06;;;;;;;4.13;2.10;;;15.40;80.10;;;;;;5094805;28;20040;-75
2022/07/01 07:50:33;;;;;;;4.18;2.25;;;15.50;79.30;;;;;;5094030;28;20062;-75
2022/07/01 07:53:01;;;;;;;11.13;1.92;;;15.50;79.40;;;;;;5101209;28;20489;-75
2022/07/01 07:55:29;;;;;;;3.42;2.00;;;15.50;79.70;;;;;;5102554;28;20067;-75
2022/07/01 07:57:57;;;;;;;6.35;2.10;;;15.50;79.10;;;;;;5110132;28;20048;-75
2022/07/01 08:00:24;;;;;;;3.92;2.00;;;15.50;79.40;;;;;;5096543;28;20067;-75
2022/07/01 08:02:52;;;;;;;3.75;2.10;;;15.60;79.70;;;;;;5105941;28;20051;-75
2022/07/01 08:05:20;;;;;;;7.47;2.33;;;15.70;79.50;;;;;;5079808;28;20052;-75
2022/07/01 08:07:47;;;;;;;7.22;1.83;;;15.80;79.30;;;;;;5093108;28;20036;-75
2022/07/01 08:10:15;;;;;;;3.38;2.08;;;15.80;79.30;;;;;;5100522;28;20408;-75
2022/07/01 08:12:42;;;;;;;6.28;2.17;;;15.80;79.00;;;;;;5075398;28;20044;-75
2022/07/01 08:15:10;;;;;;;5.72;2.13;;;15.80;79.00;;;;;;5103891;28;20071;-75
2022/07/01 08:17:37;;;;;;;6.22;2.35;;;15.80;78.80;;;;;;5079637;28;20040;-75
2022/07/01 08:20:06;;;;;;;6.65;2.10;;;15.70;78.90;;;;;;5075150;28;20047;-75
2022/07/01 08:22:33;;;;;;;4.63;2.03;;;15.70;79.10;;;;;;5104571;28;20371;-75
2022/07/01 08:25:03;;;;;;;6.50;2.13;;;15.70;79.10;;;;;;5089629;28;20047;-75
2022/07/01 08:27:31;;;;;;;6.57;2.08;;;15.70;79.30;;;;;;5096565;28;20059;-75
2022/07/01 08:29:59;;;;;;;18.65;2.72;;;15.70;79.60;;;;;;5084257;28;20055;-76
2022/07/01 08:32:28;;;;;;;5.03;2.03;;;15.80;79.30;;;;;;5095543;28;20432;-75
2022/07/01 08:34:56;;;;;;;4.32;2.13;;;15.80;78.90;;;;;;5066418;28;20501;-75
2022/07/01 08:37:25;;;;;;;6.90;2.20;;;15.80;78.80;;;;;;5076638;28;20051;-75
2022/07/01 08:39:52;;;;;;;7.47;2.38;;;15.70;79.00;;;;;;5091547;28;20056;-75
2022/07/01 08:42:20;;;;;;;7.32;2.55;;;15.80;79.10;;;;;;5083863;28;20035;-76
2022/07/01 08:44:47;;;;;;;4.15;2.70;;;15.80;78.90;;;;;;5104417;28;20048;-76
2022/07/01 08:47:15;;;;;;;7.72;2.50;;;15.80;78.80;;;;;;5071086;28;20055;-75
2022/07/01 08:49:44;;;;;;;6.63;2.35;;;15.80;78.90;;;;;;5097513;28;21071;-75
2022/07/01 08:52:11;;;;;;;4.22;2.10;;;15.90;78.90;;;;;;5067193;28;20122;-76
2022/07/01 08:54:40;;;;;;;9.43;2.22;;;16.00;79.00;;;;;;5091019;28;20036;-74
2022/07/01 08:57:08;;;;;;;5.32;2.22;;;16.00;78.50;;;;;;5093507;28;20052;-76
2022/07/01 08:59:36;;;;;;;5.43;2.67;;;16.10;78.50;;;;;;5110143;28;20046;-74
2022/07/01 09:02:05;;;;;;;5.25;2.25;;;16.20;78.50;;;;;;5093062;28;20064;-76
2022/07/01 09:04:33;;;;;;;5.72;2.00;;;16.30;78.20;;;;;;5059940;28;20041;-76
2022/07/01 09:07:05;;;;;;;8.40;2.55;;;16.30;77.90;;;;;;5074079;28;20060;-74
2022/07/01 09:09:37;;;;;;;7.43;2.45;;;16.40;77.30;;;;;;5056045;28;20139;-75
2022/07/01 09:12:07;;;;;;;6.60;2.33;;;16.40;76.90;;;;;;5072740;28;20072;-74
2022/07/01 09:14:35;;;;;;;4.25;2.22;;;16.50;76.90;;;;;;5080384;28;20293;-75
2022/07/01 09:17:06;;;;;;;5.30;1.98;;;16.50;76.80;;;;;;5091782;28;20052;-74
2022/07/01 09:19:38;;;;;;;6.50;2.22;;;16.60;76.80;;;;;;5055449;28;20048;-75
2022/07/01 09:22:13;;;;;;;8.45;3.53;;;16.70;76.50;;;;;;5072766;28;20048;-75
2022/07/01 09:24:42;;;;;;;9.23;2.63;;;16.80;75.80;;;;;;5056081;28;20052;-75
2022/07/01 09:27:17;;;;;;;6.13;2.22;;;16.80;75.80;;;;;;5072152;28;20056;-74
2022/07/01 09:29:52;;;;;;;7.15;1.90;;;16.90;75.40;;;;;;5041486;28;20049;-75
2022/07/01 09:32:21;;;;;;;5.32;2.00;;;17.10;74.90;;;;;;5091965;28;20070;-76
2022/07/01 09:34:53;;;;;;;3.63;2.15;;;17.10;74.50;;;;;;5092873;28;20037;-75
2022/07/01 09:37:25;;;;;;;6.78;2.05;;;17.30;73.60;;;;;;5074564;28;20498;-76
2022/07/01 09:39:57;;;;;;;5.05;2.00;;;17.40;73.20;;;;;;5079312;28;20055;-74
2022/07/01 09:42:27;;;;;;;4.28;1.60;;;17.50;72.40;;;;;;5083120;28;20045;-74
2022/07/01 09:45:02;;;;;;;8.55;1.75;;;17.70;72.60;;;;;;5088738;28;20044;-74
2022/07/01 09:47:34;;;;;;;4.30;1.33;;;17.80;72.20;;;;;;5074086;28;20048;-75
2022/07/01 09:50:03;;;;;;;3.15;1.52;;;17.80;68.90;;;;;;5074490;28;20047;-75
2022/07/01 09:52:31;;;;;;;7.53;1.45;;;17.90;69.50;;;;;;5092268;28;20047;-75
2022/07/01 09:55:06;;;;;;;6.70;1.10;;;17.90;68.90;;;;;;5092591;28;20059;-75
2022/07/01 09:57:34;;;;;;;3.65;1.50;;;18.00;68.00;;;;;;5092410;28;20047;-74
2022/07/01 10:00:04;;;;;;;4.88;1.35;;;18.00;67.30;;;;;;5092432;28;20465;-74
2022/07/01 10:02:34;;;;;;;4.05;1.38;;;18.10;67.10;;;;;;5104076;28;20044;-75
2022/07/01 10:05:19;;;;;;;3.95;1.10;;;18.30;67.40;;;;;;5112789;28;20055;-74
2022/07/01 10:08:09;;;;;;;2.40;1.05;;;18.40;66.00;;;;;;5110993;28;20051;-75
2022/07/01 10:11:21;;;;;;;4.82;1.40;;;18.50;64.20;;;;;;5051076;28;20048;-75
2022/07/01 10:13:50;;;;;;;4.38;1.30;;;18.50;64.30;;;;;;5079184;28;20063;-74
2022/07/01 10:16:21;;;;;;;3.50;1.20;;;18.50;64.80;;;;;;5074271;28;20055;-74
2022/07/01 10:18:49;;;;;;;16.10;2.10;;;18.50;64.20;;;;;;5082202;28;20059;-74
2022/07/01 10:21:28;;;;;;;9.73;1.63;;;18.40;64.20;;;;;;5091964;28;20493;-74
2022/07/01 10:24:13;;;;;;;5.15;1.38;;;18.20;63.50;;;;;;5079300;28;20045;-75
2022/07/01 10:26:42;;;;;;;5.10;1.75;;;17.90;64.70;;;;;;5075529;28;20432;-75
2022/07/01 10:29:36;;;;;;;7.32;2.65;;;17.80;66.50;;;;;;5068431;28;20044;-74
2022/07/01 10:32:29;;;;;;;6.55;1.65;;;17.70;67.90;;;;;;5095327;28;20382;-75
2022/07/01 10:35:17;;;;;;;2.00;1.40;;;17.80;68.40;;;;;;5093714;28;20040;-75
2022/07/01 10:38:01;;;;;;;4.53;1.83;;;18.00;68.40;;;;;;5099834;28;20124;-74
2022/07/01 10:40:47;;;;;;;3.50;1.48;;;18.30;67.50;;;;;;5095165;28;20063;-74
2022/07/01 10:43:17;;;;;;;6.90;1.55;;;18.40;65.80;;;;;;5096126;28;20055;-74
2022/07/01 10:45:58;;;;;;;4.57;1.30;;;18.50;66.30;;;;;;5094995;28;20413;-75
2022/07/01 10:48:26;;;;;;;4.20;1.10;;;18.70;65.30;;;;;;5095533;28;20052;-75
2022/07/01 10:50:54;;;;;;;5.20;1.30;;;18.70;64.70;;;;;;5104118;28;20043;-75
2022/07/01 10:53:22;;;;;;;7.50;1.65;;;18.90;64.70;;;;;;5105634;28;20041;-75
2022/07/01 10:55:53;;;;;;;3.55;1.42;;;18.90;64.50;;;;;;5098738;28;20051;-74
2022/07/01 10:58:37;;;;;;;4.13;1.23;;;18.90;64.20;;;;;;5095842;28;20397;-75
2022/07/01 11:01:05;;;;;;;4.32;1.30;;;19.00;63.80;;;;;;5077741;28;20048;-75
2022/07/01 11:03:39;;;;;;;3.83;1.42;;;19.30;62.80;;;;;;5077856;28;20063;-75
2022/07/01 11:06:09;;;;;;;2.28;1.23;;;19.50;62.30;;;;;;5077728;28;20047;-74
2022/07/01 11:08:37;;;;;;;2.45;0.77;;;19.70;59.30;;;;;;5077907;28;20488;-75
2022/07/01 11:11:05;;;;;;;3.83;1.42;;;19.70;58.30;;;;;;5098632;28;20062;-74
2022/07/01 11:13:35;;;;;;;4.50;1.15;;;19.60;58.30;;;;;;5095713;28;20439;-74
2022/07/01 11:16:04;;;;;;;6.38;1.50;;;19.60;59.40;;;;;;5080341;28;20067;-75
2022/07/01 11:18:31;;;;;;;9.45;1.63;;;19.60;59.80;;;;;;5077743;28;20047;-74
2022/07/01 11:21:08;;;;;;;10.68;1.65;;;19.70;58.60;;;;;;5102103;28;20063;-74
2022/07/01 11:23:36;;;;;;;3.92;0.95;;;19.80;58.10;;;;;;5088032;28;20044;-74
2022/07/01 11:26:20;;;;;;;6.85;1.27;;;19.60;57.30;;;;;;5095383;28;20363;-74
2022/07/01 11:28:47;;;;;;;4.32;1.10;;;19.30;58.10;;;;;;5095035;28;20048;-74
2022/07/01 11:31:15;;;;;;;8.45;1.70;;;19.20;59.00;;;;;;5094627;28;20056;-74
2022/07/01 11:33:48;;;;;;;4.03;1.30;;;19.20;59.90;;;;;;5099481;28;20460;-75
2022/07/01 11:41:53;;;;;;;2.65;1.00;;;18.90;60.50;;;;;;5091722;28;20044;-76
2022/07/01 11:44:36;;;;;;;1.55;1.10;;;18.90;60.80;;;;;;5098047;28;20418;-74
2022/07/01 11:47:05;;;;;;;3.63;1.20;;;18.80;61.20;;;;;;5081690;28;20056;-74
2022/07/01 11:49:34;;;;;;;2.40;1.00;;;18.80;61.60;;;;;;5094392;28;20055;-74
2022/07/01 11:52:05;;;;;;;4.07;1.27;;;18.80;62.00;;;;;;5093462;28;20046;-74
2022/07/01 11:54:38;;;;;;;6.03;1.45;;;18.80;62.10;;;;;;5093660;28;20048;-74
2022/07/01 11:57:15;;;;;;;6.07;1.60;;;18.80;62.70;;;;;;5093093;28;20047;-74
2022/07/01 11:59:45;;;;;;;3.90;1.30;;;18.80;63.00;;;;;;5090409;28;20046;-73
2022/07/01 12:02:14;;;;;;;2.40;1.35;;;18.90;63.20;;;;;;5097047;28;20051;-74
2022/07/01 12:04:43;;;;;;;2.28;1.10;;;19.10;62.80;;;;;;5097408;28;20040;-75
2022/07/01 12:07:12;;;;;;;3.28;1.60;;;19.30;61.80;;;;;;5085494;28;20051;-73
2022/07/01 12:09:40;;;;;;;2.78;1.50;;;19.40;62.30;;;;;;5108789;28;20130;-74
2022/07/01 12:12:19;;;;;;;4.10;1.67;;;19.40;62.50;;;;;;5094487;28;20386;-74
2022/07/01 12:14:56;;;;;;;3.90;1.52;;;19.40;62.50;;;;;;5076197;28;20048;-74
2022/07/01 12:17:26;;;;;;;5.00;1.50;;;19.50;62.50;;;;;;5060693;28;20452;-73
2022/07/01 12:19:55;;;;;;;2.83;1.40;;;19.50;62.10;;;;;;5068805;28;20059;-73
2022/07/01 12:22:26;;;;;;;5.57;1.25;;;19.60;61.90;;;;;;5088919;28;20575;-76
2022/07/01 12:25:12;;;;;;;4.95;1.40;;;19.50;62.20;;;;;;5079484;28;20411;-88
2022/07/01 12:27:41;;;;;;;4.13;1.30;;;19.50;62.40;;;;;;5069249;28;20051;-74
2022/07/01 12:30:10;;;;;;;6.30;1.50;;;19.50;62.60;;;;;;5089307;28;20773;-73
2022/07/01 12:32:39;;;;;;;2.20;1.00;;;19.40;62.30;;;;;;5075607;28;20052;-73
2022/07/01 12:37:55;;;;;;;4.82;1.10;;;19.30;62.30;;;;;;5073768;28;20307;-73
2022/07/01 12:40:27;;;;;;;4.30;1.20;;;19.30;62.60;;;;;;5073695;28;20045;-73
2022/07/01 12:42:56;;;;;;;2.20;1.08;;;19.50;62.70;;;;;;5039217;28;20057;-74
2022/07/01 12:45:25;;;;;;;5.13;1.10;;;19.70;60.80;;;;;;5035775;28;20526;-74
2022/07/01 12:47:55;;;;;;;2.83;0.90;;;19.90;59.90;;;;;;5051737;28;20072;-74
2022/07/01 12:50:31;;;;;;;3.78;1.00;;;20.20;58.00;;;;;;5053571;28;20048;-75
2022/07/01 12:53:19;;;;;;;1.42;0.80;;;20.30;57.70;;;;;;5053986;28;20045;-73
2022/07/01 12:55:57;;;;;;;3.33;0.98;;;20.40;58.20;;;;;;5053727;28;20045;-74
2022/07/01 12:58:26;;;;;;;2.30;1.08;;;20.50;57.70;;;;;;5052136;28;20056;-74
2022/07/01 13:00:58;;;;;;;3.22;1.20;;;20.30;57.60;;;;;;5053240;28;20044;-74
2022/07/01 13:03:27;;;;;;;2.58;1.00;;;20.10;58.30;;;;;;5051971;28;20064;-74
2022/07/01 13:05:56;;;;;;;2.70;1.08;;;19.80;59.10;;;;;;5053321;28;20045;-74
2022/07/01 13:08:24;;;;;;;2.60;0.98;;;19.70;59.80;;;;;;5054200;28;20045;-75
2022/07/01 13:10:51;;;;;;;5.90;1.33;;;19.60;60.20;;;;;;5069488;28;20056;-75
2022/07/01 13:13:20;;;;;;;2.13;1.08;;;19.40;60.60;;;;;;5054748;28;20064;-75